Time;durP1;ratioP1;P1;durP2;ratioP2;P2;SDS_P1;SDS_P2;PMS_P1;PMS_P2;Temp;Humidity;BMP_temperature;BMP_pressure;BME280_temperature;BME280_humidity;BME280_pressure;Samples;Min_cycle;Max_cycle;Signal;HPM_P1;HPM_P2
2023/06/01 00:01:52;;;;;;;0.22;0.22;;;13.20;99.90;;;;;;5004346;28;20062;-66
2023/06/01 00:04:17;;;;;;;0.20;0.20;;;13.30;99.90;;;;;;5002023;28;20117;-66
2023/06/01 00:06:43;;;;;;;0.30;0.30;;;13.20;99.90;;;;;;5005299;28;20052;-67
2023/06/01 00:09:09;;;;;;;0.63;0.63;;;13.30;99.90;;;;;;5003260;28;20050;-66
2023/06/01 00:11:35;;;;;;;0.00;0.00;;;13.20;99.90;;;;;;5002358;28;20436;-66
2023/06/01 00:14:01;;;;;;;0.25;0.25;;;13.20;99.90;;;;;;4994495;28;20516;-66
2023/06/01 00:16:28;;;;;;;0.20;0.20;;;13.20;99.90;;;;;;5012392;28;20087;-66
2023/06/01 00:18:56;;;;;;;0.68;0.68;;;13.30;99.90;;;;;;5000464;28;20038;-66
2023/06/01 00:21:22;;;;;;;0.00;0.00;;;13.30;99.90;;;;;;5008261;28;20050;-66
2023/06/01 00:23:48;;;;;;;0.15;0.15;;;13.30;99.90;;;;;;5009125;28;20390;-66
2023/06/01 00:26:14;;;;;;;0.00;0.00;;;13.20;99.90;;;;;;5000167;28;20548;-66
2023/06/01 00:28:39;;;;;;;0.10;0.10;;;13.20;99.90;;;;;;5003726;28;20076;-66
2023/06/01 00:31:05;;;;;;;0.00;0.00;;;13.20;99.90;;;;;;4992556;28;20129;-66
2023/06/01 00:33:31;;;;;;;0.00;0.00;;;13.20;99.90;;;;;;5004874;28;20049;-66
2023/06/01 00:35:56;;;;;;;0.32;0.32;;;13.20;99.90;;;;;;5006134;28;20092;-66
2023/06/01 00:38:22;;;;;;;0.00;0.00;;;13.20;99.90;;;;;;4998064;28;20112;-66
2023/06/01 00:40:50;;;;;;;0.82;0.47;;;13.10;99.90;;;;;;5000605;28;20425;-66
2023/06/01 00:43:17;;;;;;;1.38;0.70;;;13.10;99.90;;;;;;5034037;28;20054;-66
2023/06/01 00:45:43;;;;;;;0.57;0.57;;;13.10;99.90;;;;;;5007962;28;20081;-66
2023/06/01 00:48:09;;;;;;;0.00;0.00;;;13.10;99.90;;;;;;5000888;28;20485;-66
2023/06/01 00:50:35;;;;;;;2.38;1.52;;;13.10;99.90;;;;;;4997715;28;20117;-66
2023/06/01 00:53:02;;;;;;;1.10;0.85;;;13.20;99.90;;;;;;5018263;28;20100;-66
2023/06/01 00:55:28;;;;;;;0.32;0.32;;;13.20;99.90;;;;;;5002451;28;20467;-66
2023/06/01 00:57:55;;;;;;;0.30;0.30;;;13.10;99.90;;;;;;5004330;28;20078;-66
2023/06/01 01:00:22;;;;;;;0.00;0.00;;;13.10;99.90;;;;;;5002077;28;20038;-66
2023/06/01 01:02:48;;;;;;;0.10;0.10;;;13.10;99.90;;;;;;5010984;28;20084;-66
2023/06/01 01:05:16;;;;;;;0.30;0.30;;;13.10;99.90;;;;;;5006134;28;20042;-66
2023/06/01 01:08:09;;;;;;;1.02;0.10;;;13.10;99.90;;;;;;5007339;28;20038;-66
2023/06/01 01:10:52;;;;;;;0.25;0.25;;;13.10;99.90;;;;;;5010582;28;20494;-66
2023/06/01 01:13:47;;;;;;;0.00;0.00;;;13.00;99.90;;;;;;5006859;28;20497;-66
2023/06/01 01:16:24;;;;;;;0.10;0.10;;;13.00;99.90;;;;;;5002454;28;20096;-66
2023/06/01 01:19:24;;;;;;;0.00;0.00;;;13.00;99.90;;;;;;5002429;28;20478;-66
2023/06/01 01:22:07;;;;;;;7.32;1.45;;;12.90;99.90;;;;;;5013324;28;20060;-65
2023/06/01 01:24:50;;;;;;;0.20;0.20;;;12.90;99.90;;;;;;5010696;28;20173;-66
2023/06/01 01:27:24;;;;;;;0.32;0.32;;;13.00;99.90;;;;;;5010607;28;20042;-66
2023/06/01 01:29:54;;;;;;;0.30;0.30;;;12.90;99.90;;;;;;5003636;28;20093;-66
2023/06/01 01:32:23;;;;;;;0.20;0.20;;;12.90;99.90;;;;;;5011935;28;20038;-66
2023/06/01 01:34:50;;;;;;;0.20;0.20;;;12.90;99.90;;;;;;5007671;28;20057;-66
2023/06/01 01:37:15;;;;;;;0.00;0.00;;;12.90;99.90;;;;;;5003013;28;20568;-66
2023/06/01 01:39:41;;;;;;;0.10;0.10;;;12.90;99.90;;;;;;5012434;28;20129;-66
2023/06/01 01:42:07;;;;;;;0.08;0.08;;;12.90;99.90;;;;;;5015095;28;20053;-66
2023/06/01 01:44:33;;;;;;;0.13;0.13;;;12.80;99.90;;;;;;5005675;28;20049;-66
2023/06/01 01:47:12;;;;;;;2.20;1.85;;;12.80;99.90;;;;;;5010868;28;20054;-65
2023/06/01 01:49:48;;;;;;;1.38;0.55;;;12.80;99.90;;;;;;5008285;28;20034;-66
2023/06/01 01:52:33;;;;;;;0.22;0.22;;;12.80;99.90;;;;;;5001192;28;20157;-66
2023/06/01 01:55:01;;;;;;;3.25;0.52;;;12.90;99.90;;;;;;5011577;28;20121;-66
2023/06/01 01:57:29;;;;;;;0.00;0.00;;;12.90;99.90;;;;;;5006813;28;20045;-66
2023/06/01 01:59:55;;;;;;;2.92;0.85;;;12.90;99.90;;;;;;5004838;28;20083;-66
2023/06/01 02:02:22;;;;;;;1.00;0.43;;;12.90;99.90;;;;;;5005485;28;20042;-66
2023/06/01 02:04:47;;;;;;;0.10;0.10;;;13.00;99.90;;;;;;5007357;28;20037;-66
2023/06/01 02:07:13;;;;;;;0.20;0.20;;;12.90;99.90;;;;;;5010184;28;20100;-66
2023/06/01 02:09:40;;;;;;;2.35;0.40;;;13.00;99.90;;;;;;4998696;28;20038;-66
2023/06/01 02:12:06;;;;;;;0.40;0.40;;;12.90;99.90;;;;;;5007433;28;20592;-66
2023/06/01 02:14:32;;;;;;;0.00;0.00;;;12.90;99.90;;;;;;5011432;28;20523;-66
2023/06/01 02:16:57;;;;;;;0.20;0.20;;;12.90;99.90;;;;;;5007197;28;20074;-66
2023/06/01 02:19:23;;;;;;;0.52;0.43;;;12.90;99.90;;;;;;5001476;28;20035;-66
2023/06/01 02:21:48;;;;;;;0.00;0.00;;;13.00;99.90;;;;;;5002165;28;20404;-66
2023/06/01 02:24:14;;;;;;;0.82;0.77;;;12.90;99.90;;;;;;5010220;28;20046;-66
2023/06/01 02:26:40;;;;;;;0.90;0.90;;;12.90;99.90;;;;;;5010534;28;20624;-66
2023/06/01 02:29:06;;;;;;;0.22;0.22;;;13.00;99.90;;;;;;4998246;28;20103;-66
2023/06/01 02:31:32;;;;;;;0.10;0.10;;;13.00;99.90;;;;;;5006840;28;20052;-66
2023/06/01 02:33:59;;;;;;;0.00;0.00;;;13.00;99.90;;;;;;5004877;28;20497;-65
2023/06/01 02:36:28;;;;;;;0.20;0.20;;;12.90;99.90;;;;;;5002566;28;20049;-66
2023/06/01 02:38:55;;;;;;;0.90;0.90;;;12.90;99.90;;;;;;5009777;28;20038;-66
2023/06/01 02:41:21;;;;;;;0.43;0.43;;;12.90;99.90;;;;;;5001297;28;20046;-66
2023/06/01 02:43:47;;;;;;;0.00;0.00;;;12.90;99.90;;;;;;5002003;28;20058;-66
2023/06/01 02:46:13;;;;;;;0.10;0.10;;;12.90;99.90;;;;;;5011525;28;20045;-66
2023/06/01 02:48:38;;;;;;;0.10;0.10;;;12.90;99.90;;;;;;5017264;28;20045;-66
2023/06/01 02:51:05;;;;;;;0.10;0.10;;;12.90;99.90;;;;;;5002793;28;20042;-66
2023/06/01 02:53:31;;;;;;;0.08;0.08;;;12.80;99.90;;;;;;5009053;28;20049;-66
2023/06/01 02:55:57;;;;;;;0.45;0.45;;;12.90;99.90;;;;;;5006340;28;20048;-66
2023/06/01 02:58:22;;;;;;;0.80;0.50;;;12.80;99.90;;;;;;5006659;28;20045;-66
2023/06/01 03:00:48;;;;;;;0.30;0.30;;;12.90;99.90;;;;;;5006776;28;20042;-66
2023/06/01 03:03:14;;;;;;;0.45;0.45;;;12.90;99.90;;;;;;5007594;28;20042;-66
2023/06/01 03:05:39;;;;;;;0.10;0.10;;;12.90;99.90;;;;;;4993249;28;20046;-66
2023/06/01 03:08:08;;;;;;;0.00;0.00;;;12.90;99.90;;;;;;4997059;28;20100;-66
2023/06/01 03:10:34;;;;;;;0.17;0.17;;;12.80;99.90;;;;;;5001189;28;20041;-66
2023/06/01 03:13:00;;;;;;;0.10;0.10;;;12.80;99.90;;;;;;5005050;28;20494;-66
2023/06/01 03:15:27;;;;;;;0.15;0.15;;;12.80;99.90;;;;;;5004573;28;20048;-66
2023/06/01 03:17:53;;;;;;;0.05;0.05;;;12.80;99.90;;;;;;5012246;28;20042;-66
2023/06/01 03:20:18;;;;;;;0.60;0.57;;;12.80;99.90;;;;;;5009333;28;20363;-66
2023/06/01 03:22:45;;;;;;;0.00;0.00;;;12.80;99.90;;;;;;4999806;28;20445;-66
2023/06/01 03:25:12;;;;;;;0.65;0.65;;;12.80;99.90;;;;;;5009521;28;20108;-66
2023/06/01 03:27:39;;;;;;;0.20;0.20;;;12.80;99.90;;;;;;5003905;28;20045;-66
2023/06/01 03:30:09;;;;;;;0.00;0.00;;;12.80;99.90;;;;;;5003927;28;20053;-66
2023/06/01 03:32:37;;;;;;;0.32;0.32;;;12.80;99.90;;;;;;5010999;28;20042;-66
2023/06/01 03:35:03;;;;;;;0.77;0.30;;;12.80;99.90;;;;;;5023678;28;20470;-66
2023/06/01 03:37:29;;;;;;;1.40;0.98;;;12.80;99.90;;;;;;5010169;28;20103;-66
2023/06/01 03:39:55;;;;;;;0.10;0.10;;;12.80;99.90;;;;;;5011810;28;20046;-66
2023/06/01 03:42:20;;;;;;;0.22;0.22;;;12.80;99.90;;;;;;5011054;28;20481;-66
2023/06/01 03:44:46;;;;;;;4.95;1.85;;;12.80;99.90;;;;;;5002443;28;20045;-66
2023/06/01 03:47:13;;;;;;;0.52;0.52;;;12.80;99.90;;;;;;5005686;28;20489;-66
2023/06/01 03:49:39;;;;;;;0.30;0.30;;;12.80;99.90;;;;;;5011733;28;20125;-66
2023/06/01 03:52:05;;;;;;;1.90;1.27;;;12.80;99.90;;;;;;5009116;28;20263;-66
2023/06/01 03:54:31;;;;;;;0.30;0.30;;;12.80;99.90;;;;;;5002528;28;20038;-66
2023/06/01 03:56:57;;;;;;;0.30;0.30;;;12.90;99.90;;;;;;5004207;28;20142;-66
2023/06/01 03:59:22;;;;;;;0.15;0.15;;;12.80;99.90;;;;;;5001994;28;20042;-66
2023/06/01 04:01:49;;;;;;;1.08;0.35;;;12.80;99.90;;;;;;5000118;28;20062;-66
2023/06/01 04:04:16;;;;;;;2.83;2.30;;;12.80;99.90;;;;;;4998276;28;20104;-66
2023/06/01 04:06:44;;;;;;;0.10;0.10;;;12.80;99.90;;;;;;5000888;28;20042;-66
2023/06/01 04:09:11;;;;;;;0.47;0.47;;;12.80;99.90;;;;;;5000210;28;20042;-66
2023/06/01 04:11:39;;;;;;;0.00;0.00;;;12.80;99.90;;;;;;5022436;28;20046;-66
2023/06/01 04:14:04;;;;;;;0.10;0.10;;;12.80;99.90;;;;;;5010391;28;20492;-66
2023/06/01 04:16:30;;;;;;;0.10;0.10;;;12.80;99.90;;;;;;5001343;28;20096;-66
2023/06/01 04:18:56;;;;;;;0.00;0.00;;;12.80;99.90;;;;;;5009882;28;20041;-66
2023/06/01 04:21:23;;;;;;;0.00;0.00;;;12.80;99.90;;;;;;5008996;28;20077;-66
2023/06/01 04:23:49;;;;;;;0.17;0.15;;;12.80;99.90;;;;;;4999764;28;20046;-66
2023/06/01 04:26:17;;;;;;;0.10;0.10;;;12.90;99.90;;;;;;5008987;28;20054;-66
2023/06/01 04:28:46;;;;;;;0.47;0.47;;;12.80;99.90;;;;;;4999542;28;20141;-66
2023/06/01 04:31:18;;;;;;;0.00;0.00;;;12.80;99.90;;;;;;5004236;28;20046;-66
2023/06/01 04:33:44;;;;;;;0.10;0.10;;;12.80;99.90;;;;;;5002982;28;20379;-67
2023/06/01 04:36:12;;;;;;;1.08;1.00;;;12.80;99.90;;;;;;5013121;28;20038;-66
2023/06/01 04:38:41;;;;;;;0.00;0.00;;;12.90;99.90;;;;;;5012323;28;20046;-66
2023/06/01 04:41:09;;;;;;;0.28;0.28;;;12.80;99.90;;;;;;5002950;28;20048;-66
2023/06/01 04:43:39;;;;;;;0.10;0.10;;;12.80;99.90;;;;;;5006083;28;20158;-66
2023/06/01 04:46:05;;;;;;;0.00;0.00;;;12.90;99.90;;;;;;5005598;28;20042;-66
2023/06/01 04:48:31;;;;;;;0.63;0.63;;;12.90;99.90;;;;;;5001777;28;20101;-66
2023/06/01 04:50:58;;;;;;;0.10;0.10;;;12.90;99.90;;;;;;5003236;28;20508;-66
2023/06/01 04:53:24;;;;;;;0.20;0.20;;;12.90;99.90;;;;;;5009342;28;20100;-66
2023/06/01 04:55:50;;;;;;;0.30;0.30;;;12.90;99.90;;;;;;5006998;28;20072;-66
2023/06/01 04:58:16;;;;;;;0.03;0.03;;;12.90;99.90;;;;;;5003251;28;20055;-66
2023/06/01 05:00:42;;;;;;;0.17;0.17;;;12.90;99.90;;;;;;5002294;28;20112;-66
2023/06/01 05:03:07;;;;;;;0.25;0.25;;;12.90;99.90;;;;;;5004279;28;20434;-66
2023/06/01 05:05:33;;;;;;;0.00;0.00;;;12.90;99.90;;;;;;5020011;28;20492;-66
2023/06/01 05:07:59;;;;;;;0.30;0.30;;;12.90;99.90;;;;;;5014166;28;20037;-66
2023/06/01 05:10:25;;;;;;;0.10;0.10;;;13.00;99.90;;;;;;5008876;28;20498;-66
2023/06/01 05:12:50;;;;;;;0.20;0.20;;;13.00;99.90;;;;;;5010157;28;20045;-66
2023/06/01 05:15:18;;;;;;;0.00;0.00;;;13.00;99.90;;;;;;5000537;28;20041;-66
2023/06/01 05:17:44;;;;;;;1.98;0.90;;;13.00;99.90;;;;;;5011321;28;20425;-66
2023/06/01 05:20:11;;;;;;;0.40;0.40;;;13.00;99.90;;;;;;5010068;28;20557;-66
2023/06/01 05:22:37;;;;;;;0.10;0.10;;;13.00;99.90;;;;;;5002721;28;20098;-66
2023/06/01 05:25:03;;;;;;;0.00;0.00;;;13.10;99.90;;;;;;5006537;28;20449;-66
2023/06/01 05:27:29;;;;;;;0.32;0.32;;;13.00;99.90;;;;;;5009937;28;20128;-66
2023/06/01 05:29:55;;;;;;;1.52;1.42;;;13.10;99.90;;;;;;5004866;28;20176;-66
2023/06/01 05:32:20;;;;;;;0.10;0.10;;;13.10;99.90;;;;;;5008900;28;20050;-66
2023/06/01 05:34:46;;;;;;;2.63;0.45;;;13.10;99.90;;;;;;5011335;28;20058;-66
2023/06/01 05:37:12;;;;;;;0.52;0.52;;;13.00;99.90;;;;;;4997989;28;20033;-66
2023/06/01 05:39:37;;;;;;;0.47;0.47;;;13.10;99.90;;;;;;5011423;28;20068;-66
2023/06/01 05:42:03;;;;;;;0.00;0.00;;;13.10;99.90;;;;;;5003894;28;20053;-66
2023/06/01 05:44:31;;;;;;;0.00;0.00;;;13.00;99.90;;;;;;5003198;28;20076;-66
2023/06/01 05:46:57;;;;;;;0.10;0.10;;;13.10;99.90;;;;;;5005014;28;20095;-66
2023/06/01 05:49:22;;;;;;;0.30;0.30;;;13.00;99.90;;;;;;5013703;28;20141;-66
2023/06/01 05:51:48;;;;;;;0.50;0.50;;;13.00;99.90;;;;;;5006618;28;20042;-66
2023/06/01 05:54:13;;;;;;;0.10;0.10;;;13.10;99.90;;;;;;5008579;28;20045;-66
2023/06/01 05:56:40;;;;;;;0.10;0.10;;;13.10;99.90;;;;;;4998873;28;20046;-66
2023/06/01 05:59:06;;;;;;;0.20;0.20;;;13.20;99.90;;;;;;5009454;28;20042;-66
2023/06/01 06:01:32;;;;;;;0.40;0.40;;;13.20;99.90;;;;;;5008145;28;20044;-66
2023/06/01 06:03:57;;;;;;;0.35;0.35;;;13.20;99.90;;;;;;5007383;28;20157;-67
2023/06/01 06:06:23;;;;;;;2.45;1.33;;;13.20;99.90;;;;;;5009948;28;20044;-66
2023/06/01 06:08:50;;;;;;;0.10;0.10;;;13.20;99.90;;;;;;5004721;28;20492;-67
2023/06/01 06:11:16;;;;;;;0.32;0.32;;;13.20;99.90;;;;;;5003247;28;20513;-67
2023/06/01 06:13:41;;;;;;;0.00;0.00;;;13.20;99.90;;;;;;5010770;28;20045;-66
2023/06/01 06:16:07;;;;;;;0.17;0.17;;;13.30;99.90;;;;;;5003097;28;20037;-66
2023/06/01 06:18:33;;;;;;;0.45;0.35;;;13.30;99.90;;;;;;5040820;28;20060;-66
2023/06/01 06:20:58;;;;;;;0.10;0.10;;;13.30;99.90;;;;;;5007330;28;20494;-66
2023/06/01 06:23:24;;;;;;;0.00;0.00;;;13.30;99.90;;;;;;5006410;28;20096;-66
2023/06/01 06:25:50;;;;;;;0.00;0.00;;;13.30;99.90;;;;;;5003884;28;20050;-66
2023/06/01 06:28:15;;;;;;;4.68;1.25;;;13.30;99.90;;;;;;5010998;28;20057;-66
2023/06/01 06:30:41;;;;;;;0.08;0.08;;;13.30;99.90;;;;;;5012100;28;20048;-66
2023/06/01 06:33:07;;;;;;;0.10;0.10;;;13.40;99.90;;;;;;5006969;28;20045;-66
2023/06/01 06:35:32;;;;;;;0.20;0.20;;;13.40;99.90;;;;;;5006252;28;22263;-66
2023/06/01 06:37:58;;;;;;;0.22;0.22;;;13.40;99.90;;;;;;5003195;28;20077;-66
2023/06/01 06:40:24;;;;;;;0.00;0.00;;;13.50;99.90;;;;;;5003732;28;20045;-66
2023/06/01 06:42:50;;;;;;;0.20;0.20;;;13.40;99.90;;;;;;5005679;28;20038;-66
2023/06/01 06:45:16;;;;;;;0.10;0.10;;;13.50;99.90;;;;;;5007284;28;20053;-66
2023/06/01 06:47:45;;;;;;;0.10;0.10;;;13.50;99.90;;;;;;5004674;28;20069;-66
2023/06/01 06:50:12;;;;;;;0.10;0.10;;;13.50;99.90;;;;;;4997689;28;20101;-66
2023/06/01 06:52:38;;;;;;;0.00;0.00;;;13.50;99.90;;;;;;5002261;28;20037;-66
2023/06/01 06:55:05;;;;;;;0.00;0.00;;;13.50;99.90;;;;;;4998248;28;20072;-66
2023/06/01 06:57:30;;;;;;;0.00;0.00;;;13.50;99.90;;;;;;5002316;28;20052;-66
2023/06/01 06:59:57;;;;;;;0.10;0.10;;;13.50;99.90;;;;;;5008907;28;20033;-66
2023/06/01 07:02:22;;;;;;;0.10;0.10;;;13.50;99.90;;;;;;5010998;28;20461;-66
2023/06/01 07:04:48;;;;;;;0.38;0.22;;;13.50;99.90;;;;;;5021640;28;20076;-66
2023/06/01 07:07:14;;;;;;;0.45;0.45;;;13.50;99.90;;;;;;5003264;28;20427;-66
2023/06/01 07:09:40;;;;;;;0.08;0.08;;;13.50;99.90;;;;;;5004395;28;20038;-66
2023/06/01 07:12:06;;;;;;;0.22;0.22;;;13.60;99.90;;;;;;5011659;28;20057;-66
2023/06/01 07:14:32;;;;;;;0.15;0.15;;;13.50;99.90;;;;;;5012949;28;20038;-66
2023/06/01 07:16:57;;;;;;;0.10;0.10;;;13.50;99.90;;;;;;5007294;28;20057;-66
2023/06/01 07:19:23;;;;;;;0.00;0.00;;;13.50;99.90;;;;;;5016871;28;20938;-66
2023/06/01 07:21:49;;;;;;;0.10;0.10;;;13.60;99.90;;;;;;5011854;28;20498;-66
2023/06/01 07:24:18;;;;;;;0.00;0.00;;;13.50;99.90;;;;;;5002404;28;20045;-66
2023/06/01 07:26:44;;;;;;;0.25;0.25;;;13.50;99.90;;;;;;5011257;28;20124;-66
2023/06/01 07:29:11;;;;;;;0.10;0.10;;;13.50;99.90;;;;;;5010111;28;20445;-66
2023/06/01 07:31:38;;;;;;;0.20;0.20;;;13.60;99.90;;;;;;5001137;28;20042;-66
2023/06/01 07:34:04;;;;;;;0.00;0.00;;;13.60;99.90;;;;;;5006009;28;20058;-66
2023/06/01 07:36:35;;;;;;;0.00;0.00;;;13.60;99.90;;;;;;5012413;28;20397;-66
2023/06/01 07:39:01;;;;;;;0.17;0.17;;;13.50;99.90;;;;;;5009383;28;20042;-66
2023/06/01 07:41:27;;;;;;;0.00;0.00;;;13.50;99.90;;;;;;5005714;28;20518;-66
2023/06/01 07:43:53;;;;;;;0.00;0.00;;;13.50;99.90;;;;;;4994003;28;20042;-66
2023/06/01 07:46:18;;;;;;;0.30;0.30;;;13.40;99.90;;;;;;4998747;28;20053;-66
2023/06/01 07:48:44;;;;;;;0.30;0.30;;;13.40;99.90;;;;;;5006904;28;20038;-66
2023/06/01 07:51:09;;;;;;;0.00;0.00;;;13.30;99.90;;;;;;5011867;28;20057;-67
2023/06/01 07:53:35;;;;;;;0.03;0.03;;;13.40;99.90;;;;;;5004653;28;20042;-67
2023/06/01 07:56:01;;;;;;;0.00;0.00;;;13.50;99.90;;;;;;5000461;28;20046;-66
2023/06/01 07:58:27;;;;;;;0.10;0.10;;;13.50;99.90;;;;;;5011325;28;20116;-67
2023/06/01 08:00:53;;;;;;;0.00;0.00;;;13.60;99.90;;;;;;5012876;28;20141;-67
2023/06/01 08:03:20;;;;;;;0.00;0.00;;;13.50;99.90;;;;;;5007917;28;20046;-67
2023/06/01 08:05:46;;;;;;;0.22;0.22;;;13.50;99.90;;;;;;5003974;28;20108;-67
2023/06/01 08:08:11;;;;;;;0.10;0.10;;;13.50;99.90;;;;;;5015309;28;20477;-67
2023/06/01 08:10:39;;;;;;;0.00;0.00;;;13.50;99.90;;;;;;5015451;28;20042;-67
2023/06/01 08:13:07;;;;;;;0.08;0.08;;;13.50;99.90;;;;;;5001981;28;20054;-66
2023/06/01 08:15:34;;;;;;;0.13;0.13;;;13.40;99.90;;;;;;4999737;28;20047;-66
2023/06/01 08:17:59;;;;;;;4.78;1.27;;;13.40;99.90;;;;;;5004266;28;20129;-66
2023/06/01 08:20:26;;;;;;;0.22;0.22;;;13.40;99.90;;;;;;5005447;28;20141;-67
2023/06/01 08:22:52;;;;;;;17.17;0.63;;;13.50;99.90;;;;;;5013838;28;20057;-67
2023/06/01 08:25:18;;;;;;;0.68;0.68;;;13.50;99.90;;;;;;5009362;28;20050;-66
2023/06/01 08:27:44;;;;;;;0.00;0.00;;;13.50;99.90;;;;;;4997947;28;20490;-67
2023/06/01 08:30:11;;;;;;;0.10;0.10;;;13.50;99.90;;;;;;5015634;28;20042;-67
2023/06/01 08:32:37;;;;;;;0.00;0.00;;;13.60;99.90;;;;;;5015554;28;20117;-66
2023/06/01 08:35:05;;;;;;;0.03;0.03;;;13.60;99.90;;;;;;4998837;28;20093;-66
2023/06/01 08:37:30;;;;;;;0.00;0.00;;;13.60;99.90;;;;;;5009922;28;20053;-66
2023/06/01 08:39:56;;;;;;;0.08;0.08;;;13.70;99.90;;;;;;5015271;28;20048;-67
2023/06/01 08:42:33;;;;;;;0.45;0.45;;;13.80;99.90;;;;;;5005666;28;20116;-66
2023/06/01 08:45:03;;;;;;;0.00;0.00;;;13.70;99.90;;;;;;5007586;28;20049;-66
2023/06/01 08:47:30;;;;;;;1.45;1.20;;;13.70;99.90;;;;;;5014977;28;20053;-66
2023/06/01 08:49:58;;;;;;;0.05;0.05;;;13.70;99.90;;;;;;5004774;28;20046;-67
2023/06/01 08:52:28;;;;;;;0.00;0.00;;;13.70;99.90;;;;;;5014549;28;20042;-66
2023/06/01 08:54:54;;;;;;;0.40;0.40;;;13.80;99.90;;;;;;4999111;28;20053;-66
2023/06/01 08:57:20;;;;;;;1.27;1.13;;;13.80;99.90;;;;;;5005212;28;20053;-66
2023/06/01 08:59:46;;;;;;;0.00;0.00;;;13.80;99.90;;;;;;5015061;28;20038;-66
2023/06/01 09:02:14;;;;;;;0.10;0.10;;;13.80;99.90;;;;;;5013200;28;20049;-66
2023/06/01 09:04:42;;;;;;;2.03;0.90;;;13.80;99.90;;;;;;5001348;28;20065;-66
2023/06/01 09:07:08;;;;;;;0.10;0.10;;;13.90;99.90;;;;;;5011817;28;20057;-66
2023/06/01 09:09:33;;;;;;;0.00;0.00;;;13.80;99.90;;;;;;5013829;28;20175;-66
2023/06/01 09:12:33;;;;;;;0.08;0.08;;;13.90;99.90;;;;;;5005394;28;20065;-66
2023/06/01 09:15:10;;;;;;;0.10;0.10;;;13.90;99.90;;;;;;5007562;28;20046;-66
2023/06/01 09:17:37;;;;;;;0.00;0.00;;;13.90;99.90;;;;;;5002414;28;20041;-66
2023/06/01 09:20:03;;;;;;;3.30;1.17;;;13.90;99.90;;;;;;5014390;28;20046;-66
2023/06/01 09:22:45;;;;;;;0.17;0.17;;;13.90;99.90;;;;;;5014411;28;20450;-66
2023/06/01 09:25:13;;;;;;;0.00;0.00;;;13.90;99.90;;;;;;5002411;28;20038;-66
2023/06/01 09:27:50;;;;;;;0.30;0.30;;;13.90;99.90;;;;;;4996667;28;20096;-66
2023/06/01 09:30:17;;;;;;;0.00;0.00;;;14.00;99.90;;;;;;5013012;28;20037;-66
2023/06/01 09:32:47;;;;;;;0.08;0.08;;;13.90;99.90;;;;;;5005350;28;20030;-66
2023/06/01 09:35:13;;;;;;;0.10;0.10;;;14.00;99.90;;;;;;5010421;28;24027;-66
2023/06/01 09:37:56;;;;;;;0.13;0.13;;;14.00;99.90;;;;;;4997379;28;20154;-66
2023/06/01 09:40:22;;;;;;;0.43;0.35;;;14.00;99.90;;;;;;5014044;28;20069;-66
2023/06/01 09:42:50;;;;;;;0.22;0.22;;;14.10;99.90;;;;;;5014344;28;20481;-66
2023/06/01 09:45:23;;;;;;;0.00;0.00;;;14.20;99.90;;;;;;5005624;28;20492;-66
2023/06/01 09:47:50;;;;;;;0.00;0.00;;;14.20;99.90;;;;;;5004490;28;20502;-66
2023/06/01 09:50:37;;;;;;;0.90;0.45;;;14.20;99.90;;;;;;5004442;28;20051;-66
2023/06/01 09:53:06;;;;;;;0.15;0.15;;;14.20;99.90;;;;;;5003863;28;20064;-67
2023/06/01 09:55:32;;;;;;;0.52;0.52;;;14.30;99.90;;;;;;5006724;28;20442;-67
2023/06/01 09:58:21;;;;;;;0.08;0.08;;;14.30;99.90;;;;;;5003949;28;20043;-66
2023/06/01 10:00:48;;;;;;;0.20;0.20;;;14.30;99.90;;;;;;5011359;28;20409;-66
2023/06/01 10:03:15;;;;;;;0.00;0.00;;;14.20;99.90;;;;;;5014102;28;20042;-67
2023/06/01 10:05:45;;;;;;;8.00;2.38;;;14.20;99.90;;;;;;5013906;28;20553;-67
2023/06/01 10:08:12;;;;;;;0.17;0.17;;;14.20;99.90;;;;;;4997633;28;20502;-66
2023/06/01 10:10:39;;;;;;;0.08;0.08;;;14.20;99.90;;;;;;5038056;28;20046;-67
2023/06/01 10:13:06;;;;;;;0.30;0.30;;;14.30;99.90;;;;;;5013166;28;20049;-67
2023/06/01 10:15:33;;;;;;;2.08;0.63;;;14.30;99.90;;;;;;5004598;28;20506;-66
2023/06/01 10:18:05;;;;;;;0.05;0.05;;;14.20;99.90;;;;;;5000126;28;20129;-67
2023/06/01 10:20:36;;;;;;;0.00;0.00;;;14.20;99.90;;;;;;5000260;28;20042;-66
2023/06/01 10:23:02;;;;;;;1.45;0.57;;;14.20;99.90;;;;;;5013021;28;20045;-67
2023/06/01 10:25:43;;;;;;;0.00;0.00;;;14.30;99.90;;;;;;5004068;28;20217;-67
2023/06/01 10:28:11;;;;;;;0.85;0.43;;;14.40;99.90;;;;;;5005088;28;20066;-67
2023/06/01 10:30:37;;;;;;;0.00;0.00;;;14.40;99.90;;;;;;5012117;28;20053;-67
2023/06/01 10:33:03;;;;;;;0.10;0.10;;;14.40;99.90;;;;;;5001849;28;20034;-67
2023/06/01 10:35:28;;;;;;;0.00;0.00;;;14.40;99.90;;;;;;5007240;28;20116;-67
2023/06/01 10:38:06;;;;;;;0.10;0.10;;;14.40;99.90;;;;;;5013006;28;20061;-67
2023/06/01 10:40:36;;;;;;;2.10;0.95;;;14.40;99.90;;;;;;5009557;28;20722;-67
2023/06/01 10:43:03;;;;;;;0.10;0.10;;;14.60;99.90;;;;;;5016862;28;20042;-67
2023/06/01 10:45:35;;;;;;;0.00;0.00;;;14.60;99.90;;;;;;5006491;28;20038;-67
2023/06/01 10:48:04;;;;;;;0.00;0.00;;;14.70;99.90;;;;;;5005456;28;20050;-67
2023/06/01 10:50:31;;;;;;;0.85;0.68;;;14.70;99.90;;;;;;5011448;28;20053;-66
2023/06/01 10:53:16;;;;;;;1.52;0.77;;;14.70;99.90;;;;;;4999806;28;20052;-67
2023/06/01 10:55:42;;;;;;;0.20;0.20;;;14.70;99.90;;;;;;5011823;28;20092;-67
2023/06/01 10:58:22;;;;;;;1.67;1.45;;;14.80;99.90;;;;;;5004754;28;20050;-67
2023/06/01 11:00:48;;;;;;;0.47;0.47;;;14.80;99.90;;;;;;5001301;28;20038;-67
2023/06/01 11:03:14;;;;;;;0.45;0.35;;;14.90;99.90;;;;;;5011660;28;20541;-67
2023/06/01 11:05:48;;;;;;;0.00;0.00;;;14.90;99.90;;;;;;5012648;28;20121;-67
2023/06/01 11:08:22;;;;;;;0.38;0.38;;;14.80;99.90;;;;;;5001671;28;20092;-67
2023/06/01 11:10:53;;;;;;;0.15;0.10;;;14.80;99.90;;;;;;5000497;28;20054;-67
2023/06/01 11:13:21;;;;;;;0.28;0.28;;;14.70;99.90;;;;;;4996792;28;20042;-67
2023/06/01 11:16:06;;;;;;;0.08;0.08;;;14.70;99.90;;;;;;4994481;28;20059;-67
2023/06/01 11:18:45;;;;;;;0.00;0.00;;;14.80;99.90;;;;;;5003639;28;20045;-67
2023/06/01 11:21:16;;;;;;;0.10;0.10;;;14.80;99.90;;;;;;5000464;28;20394;-67
2023/06/01 11:23:42;;;;;;;0.43;0.40;;;14.90;99.90;;;;;;5008184;28;20053;-67
2023/06/01 11:26:08;;;;;;;0.00;0.00;;;14.80;99.90;;;;;;4995168;28;20506;-67
2023/06/01 11:28:35;;;;;;;0.10;0.10;;;14.90;99.90;;;;;;5008461;28;20056;-67
2023/06/01 11:31:02;;;;;;;0.60;0.32;;;14.90;99.90;;;;;;5011377;28;20085;-67
2023/06/01 11:33:29;;;;;;;0.90;0.90;;;14.80;99.90;;;;;;5003891;28;20092;-66
2023/06/01 11:35:59;;;;;;;0.20;0.20;;;14.90;99.90;;;;;;4993468;28;20038;-67
2023/06/01 11:38:35;;;;;;;2.55;1.45;;;14.90;99.90;;;;;;5011054;28;20436;-66
2023/06/01 11:41:02;;;;;;;0.00;0.00;;;14.90;99.90;;;;;;5011997;28;20053;-66
2023/06/01 11:43:29;;;;;;;0.08;0.08;;;14.90;99.90;;;;;;5002175;28;20049;-66
2023/06/01 11:46:02;;;;;;;0.10;0.10;;;15.00;99.90;;;;;;5004307;28;20041;-67
2023/06/01 11:48:27;;;;;;;0.00;0.00;;;15.00;99.90;;;;;;5011852;28;20042;-66
2023/06/01 11:50:54;;;;;;;0.00;0.00;;;14.90;99.90;;;;;;5011655;28;20299;-66
2023/06/01 11:53:24;;;;;;;0.10;0.10;;;14.90;99.90;;;;;;5008600;28;20371;-66
2023/06/01 11:55:51;;;;;;;0.10;0.10;;;14.90;99.90;;;;;;5001438;28;20072;-67
2023/06/01 11:58:27;;;;;;;0.00;0.00;;;15.00;99.90;;;;;;4997729;28;20078;-67
2023/06/01 12:00:53;;;;;;;0.13;0.13;;;15.00;99.90;;;;;;5008065;28;20049;-67
2023/06/01 12:03:19;;;;;;;0.00;0.00;;;15.00;99.90;;;;;;5011868;28;20134;-67
2023/06/01 12:05:46;;;;;;;0.00;0.00;;;14.90;99.90;;;;;;5009150;28;20149;-67
2023/06/01 12:08:21;;;;;;;0.00;0.00;;;14.90;99.90;;;;;;5010936;28;20045;-67
2023/06/01 12:10:48;;;;;;;0.10;0.10;;;14.90;99.90;;;;;;5004337;28;20127;-67
2023/06/01 12:13:15;;;;;;;0.00;0.00;;;14.90;99.90;;;;;;5008837;28;20046;-67
2023/06/01 12:15:41;;;;;;;0.28;0.28;;;14.90;99.90;;;;;;5009255;28;20050;-67
2023/06/01 12:18:07;;;;;;;0.00;0.00;;;14.90;99.90;;;;;;5006159;28;20387;-67
2023/06/01 12:20:35;;;;;;;0.15;0.15;;;15.00;99.90;;;;;;5002718;28;20054;-67
2023/06/01 12:23:03;;;;;;;0.03;0.03;;;15.10;99.90;;;;;;5011500;28;20493;-67
2023/06/01 12:25:32;;;;;;;0.00;0.00;;;15.10;99.90;;;;;;5003997;28;20076;-66
2023/06/01 12:28:01;;;;;;;3.33;0.73;;;15.20;99.90;;;;;;5004743;28;20054;-67
2023/06/01 12:30:27;;;;;;;0.22;0.22;;;15.20;99.90;;;;;;4999748;28;20498;-67
2023/06/01 12:32:52;;;;;;;1.38;0.73;;;15.20;99.90;;;;;;5010187;28;20128;-67
2023/06/01 12:35:18;;;;;;;0.00;0.00;;;15.20;99.90;;;;;;5008908;28;20034;-67
2023/06/01 12:37:43;;;;;;;0.73;0.57;;;15.10;99.90;;;;;;5008951;28;20068;-67
2023/06/01 12:40:10;;;;;;;0.00;0.00;;;15.00;99.90;;;;;;4999920;28;20120;-67
2023/06/01 12:42:38;;;;;;;0.82;0.63;;;14.90;99.90;;;;;;4998875;28;20045;-67
2023/06/01 12:45:05;;;;;;;0.00;0.00;;;14.90;99.90;;;;;;5011225;28;20120;-67
2023/06/01 12:47:41;;;;;;;0.20;0.20;;;14.80;99.90;;;;;;5003857;28;20057;-67
2023/06/01 12:50:09;;;;;;;0.85;0.45;;;14.80;99.90;;;;;;5006583;28;20072;-67
2023/06/01 12:52:35;;;;;;;0.00;0.00;;;14.80;99.90;;;;;;5013026;28;20108;-67